• Join FlightAware (Why Join?)
  • Login
  • US Flag 
05:06PM EDT


 

Airport Tracker/Info


-or-


 

Live Flight TrackerFlight Track Log ✈ SWA2852 ✈ 30-Apr-2013 ✈ KROC - KMDW

Flight Track Log - Related Links

Times and Time Zones

All times are in EDT time to prevent confusion due to time zone crossing. See the SWA2852 flight status page for this flight to view local times or setup timezone preferences in your user account.

Time Position Orientation Groundspeed Altitude Reporting Facility
EDT Latitude Longitude Course Direction KTS MPH feet Rate Location/Type
04:11PM 43.0872 -77.7061 218° Southwest 151 174 2,400  Level Cleveland Center
04:12PM 43.0083 -77.7242 190° South 227 261 5,100 2,460 Climbing Cleveland Center
04:13PM 42.9358 -77.7417 190° South 244 281 8,700 3,000 Climbing Cleveland Center
04:14PM 42.8572 -77.7622 191° South 269 310 11,200 3,000 Climbing Cleveland Center
04:15PM 42.7597 -77.7864 190° South 314 361 14,700 3,480 Climbing Cleveland Center
04:16PM 42.6914 -77.8911 228° Southwest 329 379 18,200 3,000 Climbing Cleveland Center
04:17PM 42.6528 -78.0225 248° West 334 384 20,800 2,460 Climbing Cleveland Center
04:18PM 42.6119 -78.1653 249° West 381 438 23,200 2,280 Climbing Cleveland Center
04:20PM 42.5242 -78.4647 248° West 424 488 27,700 2,160 Climbing Cleveland Center
04:21PM 42.4789 -78.6181 248° West 436 502 29,700 2,040 Climbing Cleveland Center
04:22PM 42.4336 -78.7742 249° West 446 513 31,800 1,920 Climbing Cleveland Center
04:23PM 42.3858 -78.9331 248° West 446 513 33,600 1,740 Climbing Cleveland Center
04:24PM 42.3400 -79.0831 248° West 446 513 35,300 1,500 Climbing Cleveland Center
04:25PM 42.3003 -79.2442 252° West 446 513 36,700 1,020 Climbing Cleveland Center
04:26PM 42.2769 -79.4044 259° West 446 513 37,400 600 Climbing Cleveland Center
04:27PM 42.2536 -79.5706 259° West 446 513 38,000 300 Climbing Cleveland Center
04:28PM 42.2278 -79.7364 258° West 453 521 38,000  Level Cleveland Center
04:29PM 42.2019 -79.8992 258° West 453 521 38,000  Level Cleveland Center
04:30PM 42.1778 -80.0647 259° West 453 521 38,000  Level Cleveland Center
04:31PM 42.1492 -80.2275 257° West 453 521 38,000  Level Cleveland Center
04:32PM 42.1244 -80.3900 258° West 446 513 38,000  Level Cleveland Center
04:33PM 42.0997 -80.5522 258° West 451 519 38,000  Level Cleveland Center
04:34PM 42.0767 -80.6950 258° West 446 513 38,000  Level Cleveland Center
04:35PM 42.0514 -80.8600 258° West 451 519 38,000  Level Cleveland Center
04:36PM 42.0217 -81.0192 256° West 451 519 38,000  Level Cleveland Center
04:37PM 41.9958 -81.1839 258° West 451 519 38,000  Level Cleveland Center
04:38PM 41.9678 -81.3456 257° West 444 511 38,000  Level Cleveland Center
04:39PM 41.9417 -81.5072 258° West 450 518 38,000  Level Cleveland Center
04:40PM 41.9153 -81.6714 258° West 450 518 38,000  Level Cleveland Center
04:42PM 41.8575 -81.9994 257° West 450 518 38,000  Level Cleveland Center
04:43PM 41.8303 -82.1575 257° West 450 518 38,000  Level Cleveland Center
04:44PM 41.7989 -82.3211 256° West 450 518 38,000  Level Cleveland Center
04:45PM 41.7689 -82.4875 256° West 450 518 38,000  Level Cleveland Center
04:46PM 41.7389 -82.6564 257° West 450 518 38,000  Level Cleveland Center
04:47PM 41.7089 -82.8139 256° West 444 511 38,000  Level Cleveland Center
04:48PM 41.6808 -82.9714 257° West 439 505 38,000  Level Cleveland Center
04:49PM 41.6503 -83.1258 255° West 439 505 38,000 -480 Level Cleveland Center
04:50PM 41.6261 -83.2750 258° West 433 498 37,100 -960 Descending Cleveland Center
04:51PM 41.5975 -83.4239 256° West 423 487 36,100 -840 Descending Cleveland Center
04:52PM 41.5683 -83.5808 256° West 429 494 35,500 -780 Descending Cleveland Center
04:53PM 41.5372 -83.7347 255° West 429 494 34,600 -960 Descending Cleveland Center
04:54PM 41.5100 -83.8886 257° West 434 499 33,600 -1,020 Descending Cleveland Center
04:55PM 41.4783 -84.0422 255° West 434 499 32,600 -1,020 Descending Cleveland Center
04:57PM 41.4672 -84.2997 267° West 415 478 30,800 -960 Descending Chicago Center
04:58PM 41.4736 -84.4525 273° West 413 475 29,900 -900 Descending Chicago Center
04:59PM 41.4789 -84.6081 273° West 420 483 29,000 -1,020 Descending Chicago Center
05:00PM 41.4864 -84.7972 273° West 426 490 27,800 -1,080 Descending Chicago Center
05:01PM 41.4919 -84.9528 273° West 421 484 26,800 -1,020 Descending Chicago Center
05:02PM 41.4964 -85.1047 272° West 412 474 25,800 -1,020 Descending Chicago Center
05:03PM 41.5017 -85.2542 273° West 404 465 24,800 -1,020 Descending Chicago Center
05:04PM 41.5061 -85.4044 272° West 399 459 23,700 -1,020 Descending Chicago Center
05:05PM 41.5108 -85.5536 272° West 393 452 22,700 -1,020 Descending Chicago Center
05:06PM 41.5153 -85.6978 272° West 387 445 21,700 -1,320 Descending Chicago Center
05:07PM 41.5194 -85.8389 272° West 381 438 20,000 -2,040 Descending Chicago Center
05:08PM 41.5239 -86.0017 272° West 367 422 17,500 -2,280 Descending Chicago Center
05:09PM 41.5244 -86.1314 270° West 354 407 15,300 -2,040 Descending Chicago Center
05:10PM 41.5233 -86.2561 269° West 343 395 13,300 -1,980 Descending Chicago Center
05:11PM 41.5233 -86.3756 270° West 329 379 11,300 -1,560 Descending Chicago Center
05:12PM 41.5219 -86.4881 269° West 312 359 10,100 -600 Descending Chicago Center
05:13PM 41.5208 -86.6039 269° West 310 357 10,100  Level Chicago Center
05:14PM 41.5206 -86.7411 270° West 311 358 10,100 -300 Level Chicago Center
05:15PM 41.5194 -86.8453 269° West 286 329 9,500 -1,020 Descending Chicago Center
05:17PM 41.5183 -86.9447 269° West 272 313 8,100 -1,440 Descending Chicago Center
05:18PM 41.5236 -87.0425 274° West 266 306 6,600 -1,020 Descending Chicago Center
05:19PM 41.5625 -87.1319 300° West 274 315 6,000 -1,020 Descending Chicago Center
05:20PM 41.6011 -87.2408 295° West 274 315 4,500 -960 Descending Chicago Center
05:21PM 41.6339 -87.3289 296° West 271 312 4,000 -420 Descending Chicago Center
05:22PM 41.6653 -87.4178 295° West 268 308 3,700 -660 Descending Chicago Center
05:23PM 41.6964 -87.5019 296° West 263 303 2,700 -600 Descending Chicago Center
05:24PM 41.7428 -87.5836 307° West 243 280 2,500 -360 Descending Chicago Center
05:25PM 41.7833 -87.6333 318° Northwest 206 237 2,000 -420 Descending Chicago TRACON
05:26PM 41.8167 -87.6833 312° West 176 203 1,700 -540 Descending Chicago TRACON
05:27PM 41.8000 -87.7333 246° West 126 145 1,000 -720 Descending Chicago TRACON
05:29PM 41.7833 -87.7500 334° Northwest  Level FlightAware Approximate